sensor_id;sensor_type;location;lat;lon;timestamp;P1;durP1;ratioP1;P2;durP2;ratioP2
12165;SDS011;6146;48.128;11.476;2022-07-22T00:02:24;14.27;;;12.97;;
12165;SDS011;6146;48.128;11.476;2022-07-22T00:04:49;13.70;;;12.03;;
12165;SDS011;6146;48.128;11.476;2022-07-22T00:07:15;13.07;;;11.77;;
12165;SDS011;6146;48.128;11.476;2022-07-22T00:09:41;14.70;;;13.27;;
12165;SDS011;6146;48.128;11.476;2022-07-22T00:12:07;13.97;;;12.67;;
12165;SDS011;6146;48.128;11.476;2022-07-22T00:14:33;14.77;;;13.47;;
12165;SDS011;6146;48.128;11.476;2022-07-22T00:16:58;13.53;;;12.23;;
12165;SDS011;6146;48.128;11.476;2022-07-22T00:19:25;14.07;;;12.43;;
12165;SDS011;6146;48.128;11.476;2022-07-22T00:21:51;14.30;;;12.17;;
12165;SDS011;6146;48.128;11.476;2022-07-22T00:24:17;14.07;;;12.67;;
12165;SDS011;6146;48.128;11.476;2022-07-22T00:26:43;12.60;;;11.50;;
12165;SDS011;6146;48.128;11.476;2022-07-22T00:29:09;13.50;;;12.10;;
12165;SDS011;6146;48.128;11.476;2022-07-22T00:31:35;13.87;;;12.57;;
12165;SDS011;6146;48.128;11.476;2022-07-22T00:34:01;14.00;;;12.70;;
12165;SDS011;6146;48.128;11.476;2022-07-22T00:36:27;13.60;;;12.40;;
12165;SDS011;6146;48.128;11.476;2022-07-22T00:38:55;14.47;;;13.07;;
12165;SDS011;6146;48.128;11.476;2022-07-22T00:41:21;14.50;;;13.10;;
12165;SDS011;6146;48.128;11.476;2022-07-22T00:43:48;13.73;;;12.40;;
12165;SDS011;6146;48.128;11.476;2022-07-22T00:46:22;13.40;;;12.10;;
12165;SDS011;6146;48.128;11.476;2022-07-22T00:48:49;13.17;;;11.87;;
12165;SDS011;6146;48.128;11.476;2022-07-22T00:51:15;13.43;;;12.23;;
12165;SDS011;6146;48.128;11.476;2022-07-22T00:53:42;13.57;;;12.27;;
12165;SDS011;6146;48.128;11.476;2022-07-22T00:56:08;13.63;;;12.33;;
12165;SDS011;6146;48.128;11.476;2022-07-22T00:58:34;13.40;;;12.20;;
12165;SDS011;6146;48.128;11.476;2022-07-22T01:01:00;13.80;;;12.50;;
12165;SDS011;6146;48.128;11.476;2022-07-22T01:03:26;15.07;;;12.87;;
12165;SDS011;6146;48.128;11.476;2022-07-22T01:05:51;13.07;;;11.77;;
12165;SDS011;6146;48.128;11.476;2022-07-22T01:08:17;12.60;;;11.50;;
12165;SDS011;6146;48.128;11.476;2022-07-22T01:10:43;13.63;;;12.23;;
12165;SDS011;6146;48.128;11.476;2022-07-22T01:13:08;12.77;;;11.57;;
12165;SDS011;6146;48.128;11.476;2022-07-22T01:15:34;13.57;;;12.27;;
12165;SDS011;6146;48.128;11.476;2022-07-22T01:18:00;13.17;;;11.93;;
12165;SDS011;6146;48.128;11.476;2022-07-22T01:20:26;12.80;;;11.50;;
12165;SDS011;6146;48.128;11.476;2022-07-22T01:22:51;12.63;;;11.53;;
12165;SDS011;6146;48.128;11.476;2022-07-22T01:25:17;13.00;;;11.70;;
12165;SDS011;6146;48.128;11.476;2022-07-22T01:27:43;12.77;;;11.57;;
12165;SDS011;6146;48.128;11.476;2022-07-22T01:30:09;12.97;;;11.77;;
12165;SDS011;6146;48.128;11.476;2022-07-22T01:32:35;13.13;;;11.93;;
12165;SDS011;6146;48.128;11.476;2022-07-22T01:35:01;13.77;;;12.47;;
12165;SDS011;6146;48.128;11.476;2022-07-22T01:37:28;13.60;;;12.30;;
12165;SDS011;6146;48.128;11.476;2022-07-22T01:39:53;13.87;;;12.57;;
12165;SDS011;6146;48.128;11.476;2022-07-22T01:42:19;12.80;;;11.50;;
12165;SDS011;6146;48.128;11.476;2022-07-22T01:44:44;12.50;;;11.43;;
12165;SDS011;6146;48.128;11.476;2022-07-22T01:47:10;14.33;;;12.93;;
12165;SDS011;6146;48.128;11.476;2022-07-22T01:49:36;12.57;;;11.50;;
12165;SDS011;6146;48.128;11.476;2022-07-22T01:52:02;13.27;;;11.87;;
12165;SDS011;6146;48.128;11.476;2022-07-22T01:54:29;14.07;;;12.83;;
12165;SDS011;6146;48.128;11.476;2022-07-22T01:56:54;13.20;;;12.00;;
12165;SDS011;6146;48.128;11.476;2022-07-22T01:59:20;13.33;;;12.13;;
12165;SDS011;6146;48.128;11.476;2022-07-22T02:01:46;12.77;;;11.47;;
12165;SDS011;6146;48.128;11.476;2022-07-22T02:04:11;13.47;;;12.17;;
12165;SDS011;6146;48.128;11.476;2022-07-22T02:06:37;13.03;;;11.83;;
12165;SDS011;6146;48.128;11.476;2022-07-22T02:09:03;13.37;;;12.20;;
12165;SDS011;6146;48.128;11.476;2022-07-22T02:11:29;13.57;;;12.27;;
12165;SDS011;6146;48.128;11.476;2022-07-22T02:13:54;13.77;;;12.47;;
12165;SDS011;6146;48.128;11.476;2022-07-22T02:16:20;13.60;;;12.27;;
12165;SDS011;6146;48.128;11.476;2022-07-22T02:18:46;14.03;;;12.63;;
12165;SDS011;6146;48.128;11.476;2022-07-22T02:21:11;13.50;;;12.17;;
12165;SDS011;6146;48.128;11.476;2022-07-22T02:23:37;13.70;;;12.50;;
12165;SDS011;6146;48.128;11.476;2022-07-22T02:26:02;13.57;;;12.17;;
12165;SDS011;6146;48.128;11.476;2022-07-22T02:28:28;14.13;;;12.73;;
12165;SDS011;6146;48.128;11.476;2022-07-22T02:30:53;14.80;;;13.23;;
12165;SDS011;6146;48.128;11.476;2022-07-22T02:33:19;12.87;;;11.67;;
12165;SDS011;6146;48.128;11.476;2022-07-22T02:35:45;12.93;;;11.70;;
12165;SDS011;6146;48.128;11.476;2022-07-22T02:38:10;14.10;;;12.80;;
12165;SDS011;6146;48.128;11.476;2022-07-22T02:40:36;13.80;;;12.53;;
12165;SDS011;6146;48.128;11.476;2022-07-22T02:43:01;14.20;;;12.70;;
12165;SDS011;6146;48.128;11.476;2022-07-22T02:45:31;14.53;;;13.07;;
12165;SDS011;6146;48.128;11.476;2022-07-22T02:47:57;14.80;;;13.40;;
12165;SDS011;6146;48.128;11.476;2022-07-22T02:50:22;14.40;;;12.90;;
12165;SDS011;6146;48.128;11.476;2022-07-22T02:52:48;13.70;;;12.53;;
12165;SDS011;6146;48.128;11.476;2022-07-22T02:55:14;14.60;;;13.30;;
12165;SDS011;6146;48.128;11.476;2022-07-22T02:57:40;15.43;;;13.93;;
12165;SDS011;6146;48.128;11.476;2022-07-22T03:00:07;15.40;;;13.87;;
12165;SDS011;6146;48.128;11.476;2022-07-22T03:02:34;15.43;;;13.93;;
12165;SDS011;6146;48.128;11.476;2022-07-22T03:05:00;15.07;;;13.67;;
12165;SDS011;6146;48.128;11.476;2022-07-22T03:07:26;15.03;;;13.70;;
12165;SDS011;6146;48.128;11.476;2022-07-22T03:09:52;15.97;;;14.27;;
12165;SDS011;6146;48.128;11.476;2022-07-22T03:12:17;15.87;;;14.27;;
12165;SDS011;6146;48.128;11.476;2022-07-22T03:14:43;15.20;;;13.70;;
12165;SDS011;6146;48.128;11.476;2022-07-22T03:17:08;15.00;;;13.67;;
12165;SDS011;6146;48.128;11.476;2022-07-22T03:19:34;14.80;;;13.40;;
12165;SDS011;6146;48.128;11.476;2022-07-22T03:21:59;14.70;;;13.30;;
12165;SDS011;6146;48.128;11.476;2022-07-22T03:24:25;14.93;;;13.63;;
12165;SDS011;6146;48.128;11.476;2022-07-22T03:26:50;15.00;;;13.67;;
12165;SDS011;6146;48.128;11.476;2022-07-22T03:29:16;14.93;;;13.53;;
12165;SDS011;6146;48.128;11.476;2022-07-22T03:31:42;16.07;;;14.57;;
12165;SDS011;6146;48.128;11.476;2022-07-22T03:34:07;15.77;;;14.37;;
12165;SDS011;6146;48.128;11.476;2022-07-22T03:36:33;15.53;;;14.03;;
12165;SDS011;6146;48.128;11.476;2022-07-22T03:38:58;14.33;;;12.93;;
12165;SDS011;6146;48.128;11.476;2022-07-22T03:41:24;15.03;;;13.40;;
12165;SDS011;6146;48.128;11.476;2022-07-22T03:43:50;15.70;;;14.30;;
12165;SDS011;6146;48.128;11.476;2022-07-22T03:46:16;15.03;;;13.63;;
12165;SDS011;6146;48.128;11.476;2022-07-22T03:48:41;15.07;;;13.80;;
12165;SDS011;6146;48.128;11.476;2022-07-22T03:51:07;15.10;;;13.70;;
12165;SDS011;6146;48.128;11.476;2022-07-22T03:53:32;15.97;;;14.37;;
12165;SDS011;6146;48.128;11.476;2022-07-22T03:55:58;16.93;;;15.33;;
12165;SDS011;6146;48.128;11.476;2022-07-22T03:58:24;15.77;;;14.07;;
12165;SDS011;6146;48.128;11.476;2022-07-22T04:00:51;15.67;;;14.17;;
12165;SDS011;6146;48.128;11.476;2022-07-22T04:03:17;15.87;;;14.47;;
12165;SDS011;6146;48.128;11.476;2022-07-22T04:05:43;16.40;;;14.97;;
12165;SDS011;6146;48.128;11.476;2022-07-22T04:08:09;15.57;;;14.17;;
12165;SDS011;6146;48.128;11.476;2022-07-22T04:10:34;15.03;;;13.70;;
12165;SDS011;6146;48.128;11.476;2022-07-22T04:13:00;15.50;;;14.03;;
12165;SDS011;6146;48.128;11.476;2022-07-22T04:15:26;15.27;;;13.67;;
12165;SDS011;6146;48.128;11.476;2022-07-22T04:17:51;15.23;;;13.93;;
12165;SDS011;6146;48.128;11.476;2022-07-22T04:20:18;15.00;;;13.60;;
12165;SDS011;6146;48.128;11.476;2022-07-22T04:22:43;15.23;;;13.73;;
12165;SDS011;6146;48.128;11.476;2022-07-22T04:25:09;14.63;;;13.13;;
12165;SDS011;6146;48.128;11.476;2022-07-22T04:27:35;15.40;;;13.93;;
12165;SDS011;6146;48.128;11.476;2022-07-22T04:30:01;14.60;;;13.37;;
12165;SDS011;6146;48.128;11.476;2022-07-22T04:32:27;15.30;;;13.80;;
12165;SDS011;6146;48.128;11.476;2022-07-22T04:34:52;14.87;;;13.57;;
12165;SDS011;6146;48.128;11.476;2022-07-22T04:37:18;15.43;;;13.93;;
12165;SDS011;6146;48.128;11.476;2022-07-22T04:39:43;14.57;;;13.23;;
12165;SDS011;6146;48.128;11.476;2022-07-22T04:42:09;13.80;;;12.60;;
12165;SDS011;6146;48.128;11.476;2022-07-22T04:44:35;14.53;;;13.13;;
12165;SDS011;6146;48.128;11.476;2022-07-22T04:47:00;13.50;;;12.40;;
12165;SDS011;6146;48.128;11.476;2022-07-22T04:49:26;14.77;;;13.27;;
12165;SDS011;6146;48.128;11.476;2022-07-22T04:51:51;15.50;;;14.07;;
12165;SDS011;6146;48.128;11.476;2022-07-22T04:54:17;14.03;;;12.77;;
12165;SDS011;6146;48.128;11.476;2022-07-22T04:56:42;13.50;;;12.10;;
12165;SDS011;6146;48.128;11.476;2022-07-22T04:59:08;13.43;;;12.23;;
12165;SDS011;6146;48.128;11.476;2022-07-22T05:01:34;12.13;;;10.87;;
12165;SDS011;6146;48.128;11.476;2022-07-22T05:03:59;11.77;;;10.77;;
12165;SDS011;6146;48.128;11.476;2022-07-22T05:06:25;10.90;;;10.00;;
12165;SDS011;6146;48.128;11.476;2022-07-22T05:08:50;11.97;;;10.87;;
12165;SDS011;6146;48.128;11.476;2022-07-22T05:11:16;12.10;;;10.13;;
12165;SDS011;6146;48.128;11.476;2022-07-22T05:13:42;11.03;;;9.93;;
12165;SDS011;6146;48.128;11.476;2022-07-22T05:16:08;11.70;;;10.60;;
12165;SDS011;6146;48.128;11.476;2022-07-22T05:18:33;11.10;;;9.87;;
12165;SDS011;6146;48.128;11.476;2022-07-22T05:21:02;10.87;;;9.97;;
12165;SDS011;6146;48.128;11.476;2022-07-22T05:23:29;10.13;;;9.27;;
12165;SDS011;6146;48.128;11.476;2022-07-22T05:25:55;11.00;;;10.00;;
12165;SDS011;6146;48.128;11.476;2022-07-22T05:28:20;12.03;;;10.23;;
12165;SDS011;6146;48.128;11.476;2022-07-22T05:30:46;10.33;;;9.33;;
12165;SDS011;6146;48.128;11.476;2022-07-22T05:33:12;10.05;;;9.18;;
12165;SDS011;6146;48.128;11.476;2022-07-22T05:35:37;10.10;;;9.20;;
12165;SDS011;6146;48.128;11.476;2022-07-22T05:38:03;9.95;;;9.07;;
12165;SDS011;6146;48.128;11.476;2022-07-22T05:40:30;9.55;;;8.75;;
12165;SDS011;6146;48.128;11.476;2022-07-22T05:42:55;10.10;;;9.25;;
12165;SDS011;6146;48.128;11.476;2022-07-22T05:45:21;9.95;;;8.95;;
12165;SDS011;6146;48.128;11.476;2022-07-22T05:47:47;9.63;;;8.68;;
12165;SDS011;6146;48.128;11.476;2022-07-22T05:50:12;9.68;;;8.77;;
12165;SDS011;6146;48.128;11.476;2022-07-22T05:52:38;8.75;;;8.07;;
12165;SDS011;6146;48.128;11.476;2022-07-22T05:55:04;8.48;;;7.78;;
12165;SDS011;6146;48.128;11.476;2022-07-22T05:57:30;8.98;;;8.20;;
12165;SDS011;6146;48.128;11.476;2022-07-22T05:59:56;9.45;;;8.50;;
12165;SDS011;6146;48.128;11.476;2022-07-22T06:02:21;8.60;;;8.00;;
12165;SDS011;6146;48.128;11.476;2022-07-22T06:04:47;8.63;;;7.93;;
12165;SDS011;6146;48.128;11.476;2022-07-22T06:07:12;8.60;;;7.93;;
12165;SDS011;6146;48.128;11.476;2022-07-22T06:09:38;8.88;;;8.00;;
12165;SDS011;6146;48.128;11.476;2022-07-22T06:12:04;9.00;;;8.25;;
12165;SDS011;6146;48.128;11.476;2022-07-22T06:14:30;9.07;;;8.15;;
12165;SDS011;6146;48.128;11.476;2022-07-22T06:16:56;8.52;;;7.80;;
12165;SDS011;6146;48.128;11.476;2022-07-22T06:19:22;8.00;;;7.38;;
12165;SDS011;6146;48.128;11.476;2022-07-22T06:21:49;8.57;;;7.88;;
12165;SDS011;6146;48.128;11.476;2022-07-22T06:24:15;7.88;;;7.20;;
12165;SDS011;6146;48.128;11.476;2022-07-22T06:26:41;8.25;;;7.57;;
12165;SDS011;6146;48.128;11.476;2022-07-22T06:29:06;8.32;;;7.53;;
12165;SDS011;6146;48.128;11.476;2022-07-22T06:31:32;8.18;;;7.57;;
12165;SDS011;6146;48.128;11.476;2022-07-22T06:33:58;8.82;;;8.13;;
12165;SDS011;6146;48.128;11.476;2022-07-22T06:36:23;8.95;;;8.25;;
12165;SDS011;6146;48.128;11.476;2022-07-22T06:38:49;8.50;;;7.70;;
12165;SDS011;6146;48.128;11.476;2022-07-22T06:41:15;9.02;;;8.30;;
12165;SDS011;6146;48.128;11.476;2022-07-22T06:43:44;9.30;;;8.40;;
12165;SDS011;6146;48.128;11.476;2022-07-22T06:46:10;8.45;;;7.70;;
12165;SDS011;6146;48.128;11.476;2022-07-22T06:48:35;8.23;;;7.43;;
12165;SDS011;6146;48.128;11.476;2022-07-22T06:51:01;8.15;;;7.40;;
12165;SDS011;6146;48.128;11.476;2022-07-22T06:53:27;8.68;;;7.97;;
12165;SDS011;6146;48.128;11.476;2022-07-22T06:55:52;8.32;;;7.47;;
12165;SDS011;6146;48.128;11.476;2022-07-22T06:58:18;8.20;;;7.50;;
12165;SDS011;6146;48.128;11.476;2022-07-22T07:00:44;9.15;;;8.27;;
12165;SDS011;6146;48.128;11.476;2022-07-22T07:03:09;9.02;;;8.32;;
12165;SDS011;6146;48.128;11.476;2022-07-22T07:05:35;9.23;;;8.35;;
12165;SDS011;6146;48.128;11.476;2022-07-22T07:08:01;8.23;;;7.63;;
12165;SDS011;6146;48.128;11.476;2022-07-22T07:10:26;7.95;;;7.30;;
12165;SDS011;6146;48.128;11.476;2022-07-22T07:12:55;8.55;;;7.75;;
12165;SDS011;6146;48.128;11.476;2022-07-22T07:15:22;7.35;;;6.70;;
12165;SDS011;6146;48.128;11.476;2022-07-22T07:17:49;7.32;;;6.72;;
12165;SDS011;6146;48.128;11.476;2022-07-22T07:20:14;7.60;;;6.80;;
12165;SDS011;6146;48.128;11.476;2022-07-22T07:22:40;7.35;;;6.75;;
12165;SDS011;6146;48.128;11.476;2022-07-22T07:25:06;7.32;;;6.75;;
12165;SDS011;6146;48.128;11.476;2022-07-22T07:27:33;7.07;;;6.45;;
12165;SDS011;6146;48.128;11.476;2022-07-22T07:29:59;7.10;;;6.50;;
12165;SDS011;6146;48.128;11.476;2022-07-22T07:32:25;8.50;;;7.68;;
12165;SDS011;6146;48.128;11.476;2022-07-22T07:34:50;7.00;;;6.45;;
12165;SDS011;6146;48.128;11.476;2022-07-22T07:37:16;7.45;;;6.75;;
12165;SDS011;6146;48.128;11.476;2022-07-22T07:39:42;7.22;;;6.53;;
12165;SDS011;6146;48.128;11.476;2022-07-22T07:42:07;7.60;;;7.00;;
12165;SDS011;6146;48.128;11.476;2022-07-22T07:44:33;7.30;;;6.65;;
12165;SDS011;6146;48.128;11.476;2022-07-22T07:46:59;7.38;;;6.60;;
12165;SDS011;6146;48.128;11.476;2022-07-22T07:49:24;7.07;;;6.47;;
12165;SDS011;6146;48.128;11.476;2022-07-22T07:51:50;6.43;;;5.93;;
12165;SDS011;6146;48.128;11.476;2022-07-22T07:54:16;7.38;;;6.68;;
12165;SDS011;6146;48.128;11.476;2022-07-22T07:56:42;6.50;;;5.90;;
12165;SDS011;6146;48.128;11.476;2022-07-22T07:59:07;6.40;;;5.85;;
12165;SDS011;6146;48.128;11.476;2022-07-22T08:01:33;6.82;;;6.13;;
12165;SDS011;6146;48.128;11.476;2022-07-22T08:03:59;6.55;;;6.03;;
12165;SDS011;6146;48.128;11.476;2022-07-22T08:06:24;6.75;;;6.25;;
12165;SDS011;6146;48.128;11.476;2022-07-22T08:08:50;7.70;;;7.10;;
12165;SDS011;6146;48.128;11.476;2022-07-22T08:11:16;8.15;;;7.40;;
12165;SDS011;6146;48.128;11.476;2022-07-22T08:13:41;8.98;;;8.15;;
12165;SDS011;6146;48.128;11.476;2022-07-22T08:16:07;7.63;;;7.00;;
12165;SDS011;6146;48.128;11.476;2022-07-22T08:18:33;7.65;;;7.05;;
12165;SDS011;6146;48.128;11.476;2022-07-22T08:20:58;6.82;;;6.22;;
12165;SDS011;6146;48.128;11.476;2022-07-22T08:23:24;7.88;;;7.18;;
12165;SDS011;6146;48.128;11.476;2022-07-22T08:25:49;7.88;;;7.28;;
12165;SDS011;6146;48.128;11.476;2022-07-22T08:28:15;8.20;;;7.50;;
12165;SDS011;6146;48.128;11.476;2022-07-22T08:30:41;8.57;;;6.93;;
12165;SDS011;6146;48.128;11.476;2022-07-22T08:33:07;7.13;;;6.53;;
12165;SDS011;6146;48.128;11.476;2022-07-22T08:35:32;6.57;;;6.07;;
12165;SDS011;6146;48.128;11.476;2022-07-22T08:37:59;6.90;;;6.28;;
12165;SDS011;6146;48.128;11.476;2022-07-22T08:40:25;7.30;;;6.65;;
12165;SDS011;6146;48.128;11.476;2022-07-22T08:42:50;6.40;;;5.90;;
12165;SDS011;6146;48.128;11.476;2022-07-22T08:45:17;6.53;;;5.97;;
12165;SDS011;6146;48.128;11.476;2022-07-22T08:47:47;7.18;;;6.55;;
12165;SDS011;6146;48.128;11.476;2022-07-22T08:50:15;6.57;;;5.95;;
12165;SDS011;6146;48.128;11.476;2022-07-22T08:52:42;7.45;;;6.85;;
12165;SDS011;6146;48.128;11.476;2022-07-22T08:55:08;6.88;;;6.28;;
12165;SDS011;6146;48.128;11.476;2022-07-22T08:57:34;5.93;;;5.43;;
12165;SDS011;6146;48.128;11.476;2022-07-22T09:00:03;7.50;;;6.90;;
12165;SDS011;6146;48.128;11.476;2022-07-22T09:02:37;7.63;;;6.93;;
12165;SDS011;6146;48.128;11.476;2022-07-22T09:05:06;6.95;;;6.35;;
12165;SDS011;6146;48.128;11.476;2022-07-22T09:07:34;6.80;;;6.30;;
12165;SDS011;6146;48.128;11.476;2022-07-22T09:10:02;7.15;;;6.55;;
12165;SDS011;6146;48.128;11.476;2022-07-22T09:12:29;6.68;;;6.10;;
12165;SDS011;6146;48.128;11.476;2022-07-22T09:14:57;6.45;;;5.85;;
12165;SDS011;6146;48.128;11.476;2022-07-22T09:17:34;6.60;;;5.97;;
12165;SDS011;6146;48.128;11.476;2022-07-22T09:20:02;5.75;;;5.28;;
12165;SDS011;6146;48.128;11.476;2022-07-22T09:25:35;6.75;;;6.15;;
12165;SDS011;6146;48.128;11.476;2022-07-22T09:30:32;5.80;;;5.30;;
12165;SDS011;6146;48.128;11.476;2022-07-22T09:32:59;6.78;;;6.18;;
12165;SDS011;6146;48.128;11.476;2022-07-22T09:35:25;6.30;;;5.70;;
12165;SDS011;6146;48.128;11.476;2022-07-22T09:37:54;5.90;;;5.40;;
12165;SDS011;6146;48.128;11.476;2022-07-22T09:40:22;5.70;;;5.15;;
12165;SDS011;6146;48.128;11.476;2022-07-22T09:42:51;6.28;;;5.75;;
12165;SDS011;6146;48.128;11.476;2022-07-22T09:45:19;6.38;;;5.15;;
12165;SDS011;6146;48.128;11.476;2022-07-22T09:47:46;7.25;;;5.45;;
12165;SDS011;6146;48.128;11.476;2022-07-22T09:50:21;5.47;;;4.97;;
12165;SDS011;6146;48.128;11.476;2022-07-22T09:52:49;5.93;;;5.10;;
12165;SDS011;6146;48.128;11.476;2022-07-22T09:55:17;6.40;;;5.65;;
12165;SDS011;6146;48.128;11.476;2022-07-22T09:57:45;7.85;;;5.72;;
12165;SDS011;6146;48.128;11.476;2022-07-22T10:00:11;7.18;;;6.43;;
12165;SDS011;6146;48.128;11.476;2022-07-22T10:02:46;6.00;;;5.60;;
12165;SDS011;6146;48.128;11.476;2022-07-22T10:05:12;5.53;;;4.95;;
12165;SDS011;6146;48.128;11.476;2022-07-22T10:07:42;5.45;;;4.97;;
12165;SDS011;6146;48.128;11.476;2022-07-22T10:10:10;4.93;;;4.45;;
12165;SDS011;6146;48.128;11.476;2022-07-22T10:12:37;5.00;;;4.60;;
12165;SDS011;6146;48.128;11.476;2022-07-22T10:15:03;5.03;;;4.53;;
12165;SDS011;6146;48.128;11.476;2022-07-22T10:17:30;5.22;;;4.72;;
12165;SDS011;6146;48.128;11.476;2022-07-22T10:19:56;5.20;;;4.80;;
12165;SDS011;6146;48.128;11.476;2022-07-22T10:25:04;5.30;;;4.80;;
12165;SDS011;6146;48.128;11.476;2022-07-22T10:27:46;5.53;;;5.13;;
12165;SDS011;6146;48.128;11.476;2022-07-22T10:30:13;5.63;;;5.13;;
12165;SDS011;6146;48.128;11.476;2022-07-22T10:32:41;5.57;;;5.10;;
12165;SDS011;6146;48.128;11.476;2022-07-22T10:37:36;5.90;;;5.40;;
12165;SDS011;6146;48.128;11.476;2022-07-22T10:40:09;6.35;;;5.20;;
12165;SDS011;6146;48.128;11.476;2022-07-22T10:47:59;5.60;;;5.20;;
12165;SDS011;6146;48.128;11.476;2022-07-22T10:53:06;7.25;;;5.18;;
12165;SDS011;6146;48.128;11.476;2022-07-22T10:55:33;5.47;;;4.97;;
12165;SDS011;6146;48.128;11.476;2022-07-22T10:58:00;5.60;;;5.20;;
12165;SDS011;6146;48.128;11.476;2022-07-22T11:00:45;5.53;;;5.03;;
12165;SDS011;6146;48.128;11.476;2022-07-22T11:03:11;5.60;;;5.10;;
12165;SDS011;6146;48.128;11.476;2022-07-22T11:05:37;5.53;;;5.13;;
12165;SDS011;6146;48.128;11.476;2022-07-22T11:08:07;4.82;;;4.45;;
12165;SDS011;6146;48.128;11.476;2022-07-22T11:10:34;5.18;;;4.78;;
12165;SDS011;6146;48.128;11.476;2022-07-22T11:13:00;5.35;;;4.85;;
12165;SDS011;6146;48.128;11.476;2022-07-22T11:15:25;5.78;;;4.65;;
12165;SDS011;6146;48.128;11.476;2022-07-22T11:17:55;5.68;;;5.20;;
12165;SDS011;6146;48.128;11.476;2022-07-22T11:20:21;5.93;;;5.32;;
12165;SDS011;6146;48.128;11.476;2022-07-22T11:22:47;5.57;;;5.18;;
12165;SDS011;6146;48.128;11.476;2022-07-22T11:25:12;8.02;;;5.43;;
12165;SDS011;6146;48.128;11.476;2022-07-22T11:27:42;6.15;;;5.53;;
12165;SDS011;6146;48.128;11.476;2022-07-22T11:30:16;5.60;;;5.10;;
12165;SDS011;6146;48.128;11.476;2022-07-22T11:32:42;5.95;;;5.45;;
12165;SDS011;6146;48.128;11.476;2022-07-22T11:35:10;5.68;;;5.20;;
12165;SDS011;6146;48.128;11.476;2022-07-22T11:37:37;5.57;;;5.07;;
12165;SDS011;6146;48.128;11.476;2022-07-22T11:40:04;5.55;;;5.03;;
12165;SDS011;6146;48.128;11.476;2022-07-22T11:42:31;6.10;;;5.60;;
12165;SDS011;6146;48.128;11.476;2022-07-22T11:44:57;7.03;;;5.47;;
12165;SDS011;6146;48.128;11.476;2022-07-22T11:47:23;5.80;;;5.30;;
12165;SDS011;6146;48.128;11.476;2022-07-22T11:49:48;6.22;;;5.63;;
12165;SDS011;6146;48.128;11.476;2022-07-22T11:52:14;6.38;;;5.78;;
12165;SDS011;6146;48.128;11.476;2022-07-22T11:54:41;6.40;;;5.80;;
12165;SDS011;6146;48.128;11.476;2022-07-22T11:57:08;6.30;;;5.80;;
12165;SDS011;6146;48.128;11.476;2022-07-22T11:59:34;6.07;;;5.60;;
12165;SDS011;6146;48.128;11.476;2022-07-22T12:02:00;6.72;;;5.70;;
12165;SDS011;6146;48.128;11.476;2022-07-22T12:04:27;6.63;;;6.03;;
12165;SDS011;6146;48.128;11.476;2022-07-22T12:06:57;6.53;;;5.93;;
12165;SDS011;6146;48.128;11.476;2022-07-22T12:09:25;6.75;;;5.57;;
12165;SDS011;6146;48.128;11.476;2022-07-22T12:11:53;6.90;;;6.30;;
12165;SDS011;6146;48.128;11.476;2022-07-22T12:14:21;6.78;;;6.05;;
12165;SDS011;6146;48.128;11.476;2022-07-22T12:19:22;6.82;;;6.22;;
12165;SDS011;6146;48.128;11.476;2022-07-22T12:21:51;7.05;;;6.43;;
12165;SDS011;6146;48.128;11.476;2022-07-22T12:24:58;7.05;;;6.40;;
12165;SDS011;6146;48.128;11.476;2022-07-22T12:27:22;7.32;;;6.72;;
12165;SDS011;6146;48.128;11.476;2022-07-22T12:29:48;7.22;;;6.57;;
12165;SDS011;6146;48.128;11.476;2022-07-22T12:32:15;8.15;;;7.45;;
12165;SDS011;6146;48.128;11.476;2022-07-22T12:34:54;7.50;;;6.63;;
12165;SDS011;6146;48.128;11.476;2022-07-22T12:39:57;7.35;;;6.80;;
12165;SDS011;6146;48.128;11.476;2022-07-22T12:42:33;6.82;;;6.32;;
12165;SDS011;6146;48.128;11.476;2022-07-22T12:47:44;7.30;;;6.75;;
12165;SDS011;6146;48.128;11.476;2022-07-22T12:52:49;6.97;;;6.28;;
12165;SDS011;6146;48.128;11.476;2022-07-22T12:55:16;7.38;;;6.75;;
12165;SDS011;6146;48.128;11.476;2022-07-22T12:57:42;7.07;;;6.47;;
12165;SDS011;6146;48.128;11.476;2022-07-22T13:00:08;7.30;;;6.32;;
12165;SDS011;6146;48.128;11.476;2022-07-22T13:02:35;7.13;;;6.53;;
12165;SDS011;6146;48.128;11.476;2022-07-22T13:05:01;8.43;;;6.13;;
12165;SDS011;6146;48.128;11.476;2022-07-22T13:07:26;7.63;;;5.93;;
12165;SDS011;6146;48.128;11.476;2022-07-22T13:09:52;8.07;;;6.43;;
12165;SDS011;6146;48.128;11.476;2022-07-22T13:12:18;7.75;;;7.05;;
12165;SDS011;6146;48.128;11.476;2022-07-22T13:14:43;7.47;;;6.88;;
12165;SDS011;6146;48.128;11.476;2022-07-22T13:17:09;7.32;;;6.70;;
12165;SDS011;6146;48.128;11.476;2022-07-22T13:19:36;7.45;;;6.78;;
12165;SDS011;6146;48.128;11.476;2022-07-22T13:22:01;7.38;;;6.68;;
12165;SDS011;6146;48.128;11.476;2022-07-22T13:24:27;7.60;;;6.90;;
12165;SDS011;6146;48.128;11.476;2022-07-22T13:26:52;7.45;;;6.75;;
12165;SDS011;6146;48.128;11.476;2022-07-22T13:29:18;7.82;;;7.15;;
12165;SDS011;6146;48.128;11.476;2022-07-22T13:31:43;7.63;;;6.95;;
12165;SDS011;6146;48.128;11.476;2022-07-22T13:34:09;7.95;;;7.25;;
12165;SDS011;6146;48.128;11.476;2022-07-22T13:36:35;7.70;;;7.10;;
12165;SDS011;6146;48.128;11.476;2022-07-22T13:39:00;7.60;;;6.88;;
12165;SDS011;6146;48.128;11.476;2022-07-22T13:41:27;7.10;;;6.40;;
12165;SDS011;6146;48.128;11.476;2022-07-22T13:43:53;7.82;;;7.07;;
12165;SDS011;6146;48.128;11.476;2022-07-22T13:46:18;6.68;;;6.15;;
12165;SDS011;6146;48.128;11.476;2022-07-22T13:48:44;8.10;;;7.30;;
12165;SDS011;6146;48.128;11.476;2022-07-22T13:51:10;7.55;;;6.85;;
12165;SDS011;6146;48.128;11.476;2022-07-22T13:53:36;7.88;;;7.07;;
12165;SDS011;6146;48.128;11.476;2022-07-22T13:56:02;7.85;;;7.15;;
12165;SDS011;6146;48.128;11.476;2022-07-22T13:58:29;7.25;;;6.72;;
12165;SDS011;6146;48.128;11.476;2022-07-22T14:00:55;8.30;;;7.50;;
12165;SDS011;6146;48.128;11.476;2022-07-22T14:03:21;7.65;;;6.95;;
12165;SDS011;6146;48.128;11.476;2022-07-22T14:05:46;9.15;;;6.82;;
12165;SDS011;6146;48.128;11.476;2022-07-22T14:08:12;8.25;;;7.53;;
12165;SDS011;6146;48.128;11.476;2022-07-22T14:10:38;8.15;;;7.45;;
12165;SDS011;6146;48.128;11.476;2022-07-22T14:13:03;7.50;;;6.90;;
12165;SDS011;6146;48.128;11.476;2022-07-22T14:15:31;7.90;;;7.20;;
12165;SDS011;6146;48.128;11.476;2022-07-22T14:17:57;7.82;;;7.22;;
12165;SDS011;6146;48.128;11.476;2022-07-22T14:20:23;7.40;;;6.70;;
12165;SDS011;6146;48.128;11.476;2022-07-22T14:22:48;7.75;;;6.97;;
12165;SDS011;6146;48.128;11.476;2022-07-22T14:25:14;8.00;;;7.20;;
12165;SDS011;6146;48.128;11.476;2022-07-22T14:27:39;8.63;;;7.40;;
12165;SDS011;6146;48.128;11.476;2022-07-22T14:30:05;7.72;;;7.00;;
12165;SDS011;6146;48.128;11.476;2022-07-22T14:32:31;7.32;;;6.63;;
12165;SDS011;6146;48.128;11.476;2022-07-22T14:34:57;7.75;;;7.05;;
12165;SDS011;6146;48.128;11.476;2022-07-22T14:37:22;7.57;;;6.88;;
12165;SDS011;6146;48.128;11.476;2022-07-22T14:39:48;7.88;;;7.07;;
12165;SDS011;6146;48.128;11.476;2022-07-22T14:42:14;8.10;;;7.30;;
12165;SDS011;6146;48.128;11.476;2022-07-22T14:44:40;7.85;;;7.15;;
12165;SDS011;6146;48.128;11.476;2022-07-22T14:47:05;8.13;;;7.43;;
12165;SDS011;6146;48.128;11.476;2022-07-22T14:49:31;7.97;;;7.25;;
12165;SDS011;6146;48.128;11.476;2022-07-22T14:51:56;7.60;;;6.90;;
12165;SDS011;6146;48.128;11.476;2022-07-22T14:54:22;6.97;;;6.40;;
12165;SDS011;6146;48.128;11.476;2022-07-22T14:56:47;8.07;;;7.25;;
12165;SDS011;6146;48.128;11.476;2022-07-22T14:59:13;7.53;;;6.93;;
12165;SDS011;6146;48.128;11.476;2022-07-22T15:01:39;7.00;;;6.40;;
12165;SDS011;6146;48.128;11.476;2022-07-22T15:04:05;8.23;;;7.43;;